Time;durP1;ratioP1;P1;durP2;ratioP2;P2;SDS_P1;SDS_P2;PMS_P1;PMS_P2;Temp;Humidity;BMP_temperature;BMP_pressure;BME280_temperature;BME280_humidity;BME280_pressure;Samples;Min_cycle;Max_cycle;Signal;HPM_P1;HPM_P2
2021/12/19 00:02:04;;;;;;;15.65;6.68;;;;;;;3.38;100.00;100958.16;5136399;27;20039;-75
2021/12/19 00:04:42;;;;;;;22.65;12.07;;;;;;;3.36;100.00;100955.50;5135818;27;20484;-72
2021/12/19 00:09:57;;;;;;;28.13;12.70;;;;;;;3.35;100.00;100953.78;5136783;27;20392;-76
2021/12/19 00:12:25;;;;;;;21.88;12.35;;;;;;;3.38;100.00;100950.25;5136888;27;20054;-71
2021/12/19 00:14:53;;;;;;;24.38;12.38;;;;;;;3.31;100.00;100941.56;5136392;27;20044;-73
2021/12/19 00:17:22;;;;;;;23.08;11.75;;;;;;;3.28;100.00;100944.28;5136710;27;20043;-73
2021/12/19 00:19:53;;;;;;;26.25;12.90;;;;;;;3.31;100.00;100940.69;5136353;27;20122;-73
2021/12/19 00:22:42;;;;;;;25.42;12.48;;;;;;;3.37;100.00;100933.50;5136216;27;20112;-71
2021/12/19 00:25:10;;;;;;;23.27;12.20;;;;;;;3.42;100.00;100936.94;5136125;27;20825;-72
2021/12/19 00:27:38;;;;;;;22.88;11.68;;;;;;;3.48;100.00;100921.91;5136157;27;20103;-72
2021/12/19 00:30:07;;;;;;;22.58;11.57;;;;;;;3.44;100.00;100923.72;5135707;27;20484;-70
2021/12/19 00:32:36;;;;;;;20.83;11.27;;;;;;;3.52;100.00;100916.53;5136470;27;20096;-71
2021/12/19 00:35:06;;;;;;;22.17;11.25;;;;;;;3.54;100.00;100914.72;5135935;27;20043;-71
2021/12/19 00:37:35;;;;;;;24.83;11.98;;;;;;;3.57;100.00;100909.41;5136425;27;20039;-71
2021/12/19 00:40:04;;;;;;;18.60;9.85;;;;;;;3.64;100.00;100915.38;5135898;27;20050;-71
2021/12/19 00:42:36;;;;;;;23.35;12.32;;;;;;;3.59;100.00;100896.19;5136039;27;20047;-72
2021/12/19 00:45:16;;;;;;;25.73;11.80;;;;;;;3.66;100.00;100908.31;5135805;27;20039;-71
2021/12/19 00:47:45;;;;;;;23.40;11.68;;;;;;;3.64;100.00;100902.19;5135064;27;20055;-71
2021/12/19 00:50:15;;;;;;;20.80;11.10;;;;;;;3.60;100.00;100898.78;5135582;27;20046;-71
2021/12/19 00:52:46;;;;;;;28.58;12.63;;;;;;;3.63;100.00;100906.63;5135682;27;20047;-71
2021/12/19 00:55:15;;;;;;;26.33;12.52;;;;;;;3.59;100.00;100912.00;5135630;27;20490;-75
2021/12/19 00:57:44;;;;;;;18.77;9.93;;;;;;;3.61;100.00;100907.56;5135875;27;20043;-75
2021/12/19 01:00:15;;;;;;;21.33;11.30;;;;;;;3.59;100.00;100902.31;5135549;27;20047;-75
2021/12/19 01:02:45;;;;;;;26.38;12.95;;;;;;;3.58;100.00;100908.50;5135652;27;20142;-76
2021/12/19 01:05:15;;;;;;;20.65;10.73;;;;;;;3.57;100.00;100898.84;5135186;27;20233;-76
2021/12/19 01:07:43;;;;;;;21.10;11.38;;;;;;;3.61;100.00;100899.63;5135786;27;20061;-76
2021/12/19 01:10:11;;;;;;;27.90;12.73;;;;;;;3.57;100.00;100887.41;5135049;27;20043;-76
2021/12/19 01:12:39;;;;;;;25.05;13.50;;;;;;;3.60;100.00;100890.00;5135758;27;20046;-76
2021/12/19 01:15:12;;;;;;;22.85;11.90;;;;;;;3.57;100.00;100892.69;5135216;27;20046;-75
2021/12/19 01:17:41;;;;;;;26.83;12.75;;;;;;;3.60;100.00;100880.31;5135619;27;20482;-76
2021/12/19 01:20:16;;;;;;;19.92;10.57;;;;;;;3.56;100.00;100872.47;5135113;27;20047;-76
2021/12/19 01:22:46;;;;;;;25.40;13.45;;;;;;;3.53;100.00;100870.78;5135525;27;20047;-72
2021/12/19 01:25:14;;;;;;;23.45;12.52;;;;;;;3.56;100.00;100864.56;5135086;27;20779;-73
2021/12/19 01:27:43;;;;;;;21.67;10.40;;;;;;;3.59;100.00;100864.53;5135252;27;20039;-75
2021/12/19 01:30:12;;;;;;;25.60;13.30;;;;;;;3.59;100.00;100859.25;5134908;27;20046;-76
2021/12/19 01:32:41;;;;;;;24.40;12.02;;;;;;;3.63;100.00;100859.13;5135152;27;20047;-75
2021/12/19 01:35:12;;;;;;;24.67;13.88;;;;;;;3.65;100.00;100857.31;5134831;27;20112;-76
2021/12/19 01:37:41;;;;;;;25.38;14.07;;;;;;;3.67;100.00;100858.16;5135276;27;20047;-76
2021/12/19 01:40:12;;;;;;;28.45;14.65;;;;;;;3.69;100.00;100866.91;5135176;27;20047;-76
2021/12/19 01:42:43;;;;;;;23.25;11.32;;;;;;;3.77;100.00;100856.19;5135268;27;20035;-76
2021/12/19 01:45:14;;;;;;;28.20;14.30;;;;;;;3.83;100.00;100850.75;5134663;27;20103;-76
2021/12/19 01:47:43;;;;;;;29.85;13.60;;;;;;;3.79;100.00;100841.19;5134685;27;20039;-76
2021/12/19 01:50:12;;;;;;;28.10;14.20;;;;;;;3.85;100.00;100835.75;5134383;27;20050;-76
2021/12/19 01:52:42;;;;;;;25.85;12.30;;;;;;;3.87;100.00;100828.69;5135516;27;20373;-76
2021/12/19 01:55:12;;;;;;;28.17;14.73;;;;;;;3.82;100.00;100825.28;5133147;27;20503;-75
2021/12/19 01:57:42;;;;;;;21.90;12.45;;;;;;;3.89;100.00;100818.97;5134379;27;20043;-75
2021/12/19 02:00:20;;;;;;;26.88;14.15;;;;;;;3.86;100.00;100805.84;5134435;27;20043;-76
2021/12/19 02:02:48;;;;;;;25.83;14.43;;;;;;;3.94;100.00;100803.84;5134725;27;20078;-76
2021/12/19 02:05:17;;;;;;;24.90;13.05;;;;;;;4.00;100.00;100806.38;5134524;27;20058;-75
2021/12/19 02:07:47;;;;;;;29.08;14.82;;;;;;;3.98;100.00;100797.63;5134651;27;20066;-75
2021/12/19 02:10:19;;;;;;;28.85;14.15;;;;;;;4.01;100.00;100794.91;5134283;27;20039;-75
2021/12/19 02:12:48;;;;;;;27.30;14.07;;;;;;;4.01;100.00;100813.38;5134645;27;20039;-75
2021/12/19 02:15:19;;;;;;;27.40;13.77;;;;;;;4.04;100.00;100796.59;5134223;27;20042;-75
2021/12/19 02:17:49;;;;;;;26.77;14.10;;;;;;;4.06;100.00;100796.56;5134573;27;20107;-75
2021/12/19 02:20:21;;;;;;;22.60;12.45;;;;;;;4.08;100.00;100806.19;5133855;27;20071;-75
2021/12/19 02:22:51;;;;;;;26.20;13.85;;;;;;;4.11;100.00;100792.03;5133920;27;20051;-74
2021/12/19 02:25:21;;;;;;;26.15;12.85;;;;;;;4.15;100.00;100783.13;5133530;27;20492;-75
2021/12/19 02:27:49;;;;;;;27.50;15.45;;;;;;;4.21;100.00;100780.31;5134205;27;20035;-74
2021/12/19 02:30:17;;;;;;;22.88;11.25;;;;;;;4.20;100.00;100768.03;5133976;27;20043;-74
2021/12/19 02:32:46;;;;;;;23.50;13.02;;;;;;;4.17;100.00;100766.34;5134196;27;20457;-74
2021/12/19 02:35:20;;;;;;;26.40;14.07;;;;;;;4.19;100.00;100763.66;5133912;27;20537;-75
2021/12/19 02:48:56;;;;;;;26.85;14.43;;;;;;;4.35;100.00;100730.66;5133826;28;20047;-75
2021/12/19 02:51:30;;;;;;;25.45;12.88;;;;;;;4.41;100.00;100738.41;5133441;27;20096;-77
2021/12/19 02:54:00;;;;;;;25.35;12.57;;;;;;;4.42;100.00;100734.84;5133881;27;20091;-77
2021/12/19 02:56:29;;;;;;;21.15;12.10;;;;;;;4.42;100.00;100753.34;5134265;27;20051;-76
2021/12/19 02:58:57;;;;;;;23.50;9.88;;;;;;;4.43;100.00;100718.09;5133967;28;20403;-76
2021/12/19 03:01:26;;;;;;;21.88;12.98;;;;;;;4.42;100.00;100720.78;5133673;28;20035;-76
2021/12/19 03:03:55;;;;;;;25.73;12.20;;;;;;;4.47;100.00;100724.19;5133858;27;20050;-75
2021/12/19 03:06:24;;;;;;;21.75;11.90;;;;;;;4.44;100.00;100719.84;5133222;28;20043;-77
2021/12/19 03:08:52;;;;;;;18.05;10.30;;;;;;;4.37;100.00;100705.06;5133601;27;20047;-76
2021/12/19 03:19:39;;;;;;;22.60;11.05;;;;;;;4.44;100.00;100690.81;5137943;27;20046;-72
2021/12/19 03:22:09;;;;;;;25.50;13.48;;;;;;;4.42;100.00;100689.94;5137465;27;20043;-72
2021/12/19 03:24:37;;;;;;;23.55;13.15;;;;;;;4.42;100.00;100682.03;5137705;27;20127;-71
2021/12/19 03:27:07;;;;;;;23.88;13.18;;;;;;;4.42;100.00;100679.38;5137261;27;20035;-72
2021/12/19 03:29:35;;;;;;;20.85;10.93;;;;;;;4.41;100.00;100693.50;5137610;27;20039;-71
2021/12/19 03:32:04;;;;;;;20.75;11.68;;;;;;;4.34;100.00;100689.28;5137112;27;20122;-76
2021/12/19 03:34:34;;;;;;;23.50;11.82;;;;;;;4.35;100.00;100685.78;5137638;27;20035;-71
2021/12/19 03:37:03;;;;;;;19.48;10.18;;;;;;;4.36;100.00;100684.00;5137509;27;20043;-72
2021/12/19 03:39:44;;;;;;;22.83;12.63;;;;;;;4.38;100.00;100677.75;5137536;27;20050;-72
2021/12/19 03:42:13;;;;;;;25.00;13.55;;;;;;;4.40;100.00;100670.66;5136088;27;20047;-74
2021/12/19 03:44:41;;;;;;;22.80;13.02;;;;;;;4.38;100.00;100669.84;5137247;27;20043;-73
2021/12/19 03:47:10;;;;;;;23.60;13.32;;;;;;;4.37;100.00;100675.16;5136620;27;20403;-74
2021/12/19 03:49:38;;;;;;;23.35;13.52;;;;;;;4.39;100.00;100690.03;5136987;27;20047;-73
2021/12/19 03:52:06;;;;;;;22.95;12.48;;;;;;;4.33;100.00;100690.22;5136455;27;20043;-74
2021/12/19 03:54:35;;;;;;;24.48;13.20;;;;;;;4.35;100.00;100667.28;5137126;27;20039;-72
2021/12/19 03:57:03;;;;;;;22.52;11.23;;;;;;;4.31;100.00;100660.34;5137114;27;20391;-72
2021/12/19 03:59:33;;;;;;;24.20;12.88;;;;;;;4.30;100.00;100655.97;5136698;27;20053;-74
2021/12/19 04:02:01;;;;;;;24.23;13.13;;;;;;;4.29;100.00;100662.16;5136903;27;20046;-73
2021/12/19 04:04:34;;;;;;;25.65;14.43;;;;;;;4.32;100.00;100662.06;5136589;27;20043;-73
2021/12/19 04:07:03;;;;;;;22.10;12.57;;;;;;;4.39;100.00;100662.78;5136569;27;20499;-74
2021/12/19 04:09:32;;;;;;;24.55;12.93;;;;;;;4.33;100.00;100666.44;5136574;27;20380;-73
2021/12/19 04:12:00;;;;;;;26.30;15.20;;;;;;;4.35;100.00;100655.84;5136771;27;20087;-73
2021/12/19 04:14:28;;;;;;;18.40;10.63;;;;;;;4.31;100.00;100661.19;5136408;27;20146;-73
2021/12/19 04:16:58;;;;;;;22.23;13.40;;;;;;;4.29;100.00;100693.84;5136821;27;20112;-71
2021/12/19 04:19:26;;;;;;;28.10;15.13;;;;;;;4.26;100.00;100678.97;5136298;27;20115;-71
2021/12/19 04:21:55;;;;;;;23.33;12.15;;;;;;;4.25;100.00;100666.69;5136568;27;20043;-70
2021/12/19 04:24:23;;;;;;;27.08;13.15;;;;;;;4.25;100.00;100664.03;5136285;27;20047;-71
2021/12/19 04:26:51;;;;;;;20.90;12.02;;;;;;;4.20;100.00;100665.06;5135406;27;20373;-70
2021/12/19 04:29:20;;;;;;;14.20;8.57;;;;;;;4.17;100.00;100662.50;5136143;27;20114;-71
2021/12/19 04:31:48;;;;;;;25.13;14.07;;;;;;;4.18;100.00;100659.81;5136420;27;20092;-69
2021/12/19 04:34:18;;;;;;;25.45;12.90;;;;;;;4.22;100.00;100655.31;5135797;27;20108;-71
2021/12/19 04:36:50;;;;;;;17.92;8.95;;;;;;;4.19;100.00;100637.78;5136010;27;20088;-71
2021/12/19 04:39:35;;;;;;;20.60;11.48;;;;;;;4.19;100.00;100640.44;5135681;27;20518;-73
2021/12/19 04:53:31;;;;;;;22.10;11.90;;;;;;;4.12;100.00;100616.88;5135460;27;20496;-73
2021/12/19 05:05:16;;;;;;;20.92;11.45;;;;;;;3.93;100.00;100576.91;5092535;28;20048;-79
2021/12/19 05:15:58;;;;;;;21.42;11.57;;;;;;;3.84;100.00;100559.56;5135573;27;20039;-76
2021/12/19 05:18:30;;;;;;;18.92;9.90;;;;;;;3.84;100.00;100564.84;5134016;27;20055;-76
2021/12/19 05:21:02;;;;;;;46.00;10.25;;;;;;;3.82;100.00;100566.66;5135475;27;20043;-76
2021/12/19 05:23:48;;;;;;;24.05;12.55;;;;;;;3.83;100.00;100563.13;5135620;27;20914;-74
2021/12/19 05:26:17;;;;;;;16.45;9.10;;;;;;;3.85;100.00;100557.78;5135186;27;20126;-76
2021/12/19 05:28:48;;;;;;;21.08;11.35;;;;;;;3.87;100.00;100564.78;5135195;27;20084;-76
2021/12/19 05:31:16;;;;;;;20.92;12.20;;;;;;;3.86;100.00;100564.78;5134736;27;20050;-77
2021/12/19 05:33:46;;;;;;;15.73;8.55;;;;;;;3.86;100.00;100536.66;5135216;27;20110;-76
2021/12/19 05:47:16;;;;;;;15.65;7.97;;;;;;;3.78;100.00;100528.09;5134358;27;20039;-73
2021/12/19 05:49:45;;;;;;;21.63;13.32;;;;;;;3.75;100.00;100522.88;5134729;27;20039;-74
2021/12/19 05:52:14;;;;;;;15.52;9.48;;;;;;;3.74;100.00;100526.44;5134612;27;20056;-76
2021/12/19 05:54:44;;;;;;;16.83;9.10;;;;;;;3.77;100.00;100521.09;5134800;27;20039;-79
2021/12/19 05:57:12;;;;;;;23.55;13.25;;;;;;;3.77;100.00;100526.38;5134877;27;20046;-79
2021/12/19 05:59:40;;;;;;;16.48;8.23;;;;;;;3.80;100.00;100528.91;5134644;27;20043;-78
2021/12/19 06:02:08;;;;;;;17.60;10.07;;;;;;;3.80;100.00;100539.47;5134694;27;20047;-78
2021/12/19 06:04:36;;;;;;;22.42;12.35;;;;;;;3.88;100.00;100526.91;5134400;27;20050;-75
2021/12/19 06:07:05;;;;;;;22.60;12.15;;;;;;;3.87;100.00;100535.75;5134561;27;20434;-76
2021/12/19 06:09:33;;;;;;;23.00;12.25;;;;;;;3.92;100.00;100535.59;5133909;27;20046;-74
2021/12/19 06:12:04;;;;;;;22.05;11.98;;;;;;;3.86;100.00;100527.84;5134252;27;20039;-77
2021/12/19 06:14:34;;;;;;;21.73;12.07;;;;;;;3.86;100.00;100520.84;5134428;27;20035;-78
2021/12/19 06:17:04;;;;;;;19.50;9.20;;;;;;;3.83;100.00;100509.47;5134516;27;20043;-77
2021/12/19 06:19:36;;;;;;;20.33;11.70;;;;;;;3.82;100.00;100524.44;5134448;27;20057;-78
2021/12/19 06:22:06;;;;;;;21.33;11.88;;;;;;;3.85;100.00;100512.94;5134576;27;20130;-76
2021/12/19 06:24:34;;;;;;;18.13;9.75;;;;;;;3.74;100.00;100497.41;5133805;27;20039;-74
2021/12/19 06:27:04;;;;;;;19.50;11.20;;;;;;;3.82;100.00;100498.06;5133978;27;20442;-72
2021/12/19 06:29:34;;;;;;;26.38;13.65;;;;;;;3.80;100.00;100515.72;5133992;27;20122;-74
2021/12/19 06:32:03;;;;;;;22.02;12.02;;;;;;;3.94;100.00;100512.66;5134295;27;20166;-73
2021/12/19 06:34:32;;;;;;;21.17;12.18;;;;;;;3.95;100.00;100523.19;5133860;27;20043;-75
2021/12/19 06:37:08;;;;;;;19.30;10.95;;;;;;;4.00;100.00;100508.09;5137034;27;20047;-75
2021/12/19 06:39:39;;;;;;;16.95;9.73;;;;;;;4.01;100.00;100498.38;5133714;27;20042;-74
2021/12/19 06:42:10;;;;;;;25.00;14.52;;;;;;;3.96;100.00;100495.91;5134176;27;20050;-70
2021/12/19 06:44:38;;;;;;;21.13;11.25;;;;;;;3.99;100.00;100492.31;5133860;27;20122;-75
2021/12/19 06:47:07;;;;;;;21.88;12.20;;;;;;;3.98;100.00;100488.78;5134133;27;20039;-74
2021/12/19 06:49:35;;;;;;;21.20;12.63;;;;;;;4.00;100.00;100492.25;5133804;27;20040;-73
2021/12/19 06:52:04;;;;;;;20.38;12.30;;;;;;;4.04;100.00;100500.94;5137768;27;20046;-73
2021/12/19 06:54:32;;;;;;;23.80;12.75;;;;;;;4.06;100.00;100498.28;5138031;27;20035;-73
2021/12/19 06:57:00;;;;;;;18.00;10.25;;;;;;;4.16;100.00;100486.53;5138351;27;20047;-73
2021/12/19 06:59:30;;;;;;;22.00;12.73;;;;;;;4.16;100.00;100489.16;5137936;27;20051;-73
2021/12/19 07:01:58;;;;;;;19.27;11.52;;;;;;;4.15;100.00;100472.47;5138280;27;20481;-72
2021/12/19 07:04:26;;;;;;;14.98;8.55;;;;;;;4.24;100.00;100484.50;5137574;27;20043;-73
2021/12/19 07:06:55;;;;;;;19.27;10.23;;;;;;;4.30;100.00;100479.03;5138131;27;20035;-73
2021/12/19 07:09:23;;;;;;;18.98;11.65;;;;;;;4.29;100.00;100482.59;5137523;27;20039;-73
2021/12/19 07:11:51;;;;;;;18.45;11.13;;;;;;;4.30;100.00;100463.19;5137930;27;20043;-76
2021/12/19 07:14:19;;;;;;;16.80;9.95;;;;;;;4.36;100.00;100470.06;5137711;27;20043;-84
2021/12/19 07:16:51;;;;;;;18.42;9.73;;;;;;;4.40;100.00;100485.75;5138251;27;20039;-83
2021/12/19 07:19:19;;;;;;;17.33;10.15;;;;;;;4.45;100.00;100483.84;5137764;27;20047;-83
2021/12/19 07:21:47;;;;;;;17.67;11.18;;;;;;;4.44;100.00;100471.56;5137803;27;20047;-82
2021/12/19 07:24:16;;;;;;;13.75;7.40;;;;;;;4.42;100.00;100478.66;5136414;27;20047;-84
2021/12/19 07:26:44;;;;;;;20.63;10.40;;;;;;;4.40;100.00;100469.91;5137608;27;20460;-79
2021/12/19 07:29:12;;;;;;;16.75;9.80;;;;;;;4.44;100.00;100461.00;5137781;27;20035;-81
2021/12/19 07:31:41;;;;;;;11.93;6.80;;;;;;;4.42;100.00;100441.66;5136310;27;20047;-77
2021/12/19 07:34:11;;;;;;;14.65;8.32;;;;;;;4.37;100.00;100446.25;5137510;27;20043;-79
2021/12/19 07:36:42;;;;;;;16.67;9.90;;;;;;;4.36;100.00;100439.25;5136983;27;20047;-79
2021/12/19 07:39:22;;;;;;;8.68;5.13;;;;;;;4.44;100.00;100442.50;5137620;27;20108;-77
2021/12/19 07:41:50;;;;;;;12.40;7.07;;;;;;;4.40;100.00;100446.13;5137426;27;20032;-75
2021/12/19 07:44:18;;;;;;;16.98;9.32;;;;;;;4.40;100.00;100427.66;5137030;27;20047;-75
2021/12/19 07:46:47;;;;;;;11.25;6.10;;;;;;;4.45;100.00;100428.38;5137099;27;20031;-74
2021/12/19 07:49:16;;;;;;;13.13;7.55;;;;;;;4.48;100.00;100433.56;5137251;27;20039;-77
2021/12/19 07:51:45;;;;;;;15.77;9.07;;;;;;;4.49;100.00;100442.34;5136452;27;20065;-77
2021/12/19 07:54:13;;;;;;;18.23;10.32;;;;;;;4.55;100.00;100416.59;5136824;27;20039;-75
2021/12/19 07:56:41;;;;;;;14.07;8.68;;;;;;;4.57;100.00;100430.63;5137006;27;20051;-80
2021/12/19 07:59:09;;;;;;;15.15;8.35;;;;;;;4.62;100.00;100426.94;5137294;27;20515;-80
2021/12/19 08:01:37;;;;;;;11.40;5.85;;;;;;;4.65;100.00;100430.38;5135496;27;20074;-78
2021/12/19 08:04:07;;;;;;;11.70;6.68;;;;;;;4.68;100.00;100416.19;5136975;27;20456;-76
2021/12/19 08:06:40;;;;;;;13.55;7.38;;;;;;;4.69;100.00;100412.63;5136651;27;20039;-77
2021/12/19 08:09:10;;;;;;;19.30;9.25;;;;;;;4.71;100.00;100421.34;5136900;27;20035;-81
2021/12/19 08:11:42;;;;;;;16.50;9.90;;;;;;;4.75;100.00;100423.00;5136468;27;20043;-79
2021/12/19 08:14:12;;;;;;;14.30;8.25;;;;;;;4.81;100.00;100423.63;5137326;27;20487;-81
2021/12/19 08:16:42;;;;;;;13.75;7.40;;;;;;;4.84;100.00;100422.69;5136321;27;20099;-82
2021/12/19 08:19:10;;;;;;;14.43;7.75;;;;;;;4.77;100.00;100410.59;5137161;27;20365;-78
2021/12/19 08:21:40;;;;;;;12.93;7.63;;;;;;;4.82;100.00;100412.16;5136288;27;20043;-74
2021/12/19 08:24:11;;;;;;;14.23;8.68;;;;;;;4.93;100.00;100401.25;5136387;27;20031;-71
2021/12/19 08:26:41;;;;;;;11.10;6.93;;;;;;;4.95;100.00;100394.13;5136285;27;20122;-72
2021/12/19 08:29:11;;;;;;;14.65;9.25;;;;;;;4.92;100.00;100391.56;5136713;27;20035;-75
2021/12/19 08:31:40;;;;;;;10.25;5.57;;;;;;;4.81;100.00;100375.22;5136105;27;20509;-75
2021/12/19 08:34:08;;;;;;;13.85;7.47;;;;;;;4.77;100.00;100373.59;5136231;27;20039;-75
2021/12/19 08:36:37;;;;;;;15.55;8.25;;;;;;;4.75;100.00;100375.44;5135994;27;20151;-76
2021/12/19 08:39:08;;;;;;;17.40;8.98;;;;;;;4.73;100.00;100385.16;5136045;27;20058;-76
2021/12/19 08:41:39;;;;;;;;;;;;;;;4.76;100.00;100378.03;5136462;27;20458;-78
2021/12/19 08:44:08;;;;;;;16.60;9.05;;;;;;;4.79;100.00;100377.91;5135066;27;19919;-78
2021/12/19 08:46:38;;;;;;;15.63;9.10;;;;;;;4.82;100.00;100403.34;5134577;27;20079;-79
2021/12/19 08:49:07;;;;;;;12.57;6.68;;;;;;;4.77;100.00;100355.09;5135835;27;20062;-78
2021/12/19 08:51:37;;;;;;;13.35;6.25;;;;;;;4.71;100.00;100363.22;5135223;27;20047;-75
2021/12/19 08:54:08;;;;;;;11.57;6.47;;;;;;;4.73;100.00;100351.72;5135856;27;20043;-74
2021/12/19 08:56:36;;;;;;;13.82;7.72;;;;;;;4.73;100.00;100367.56;5135533;27;20510;-76
2021/12/19 08:59:06;;;;;;;14.00;7.78;;;;;;;4.75;100.00;100354.31;5135871;27;20400;-74
2021/12/19 09:01:34;;;;;;;12.23;5.80;;;;;;;4.73;100.00;100359.63;5135378;27;20088;-76
2021/12/19 09:04:02;;;;;;;9.93;4.90;;;;;;;4.74;100.00;100355.22;5136009;27;20054;-76
2021/12/19 09:06:31;;;;;;;9.18;5.32;;;;;;;4.76;100.00;100358.66;5135203;27;20043;-77
2021/12/19 09:09:01;;;;;;;16.80;9.15;;;;;;;4.84;100.00;100378.63;5136066;27;20491;-75
2021/12/19 09:11:31;;;;;;;13.45;7.70;;;;;;;4.90;100.00;100366.97;5135630;27;20069;-77
2021/12/19 09:14:00;;;;;;;15.23;8.02;;;;;;;4.87;100.00;100375.00;5135772;27;20039;-70
2021/12/19 09:16:28;;;;;;;9.98;5.72;;;;;;;4.89;100.00;100347.59;5134719;27;20476;-76
2021/12/19 09:19:11;;;;;;;15.73;8.17;;;;;;;4.98;100.00;100351.69;5135247;27;20126;-71
2021/12/19 09:21:46;;;;;;;11.70;4.55;;;;;;;4.85;100.00;100335.41;5136297;27;20107;-70
2021/12/19 09:24:15;;;;;;;20.30;7.32;;;;;;;4.85;100.00;100329.28;5137858;27;20391;-70
2021/12/19 09:26:45;;;;;;;17.50;8.45;;;;;;;4.86;100.00;100325.72;5134944;27;20062;-70
2021/12/19 09:29:13;;;;;;;13.90;7.65;;;;;;;4.93;100.00;100318.44;5135469;27;20047;-73
2021/12/19 09:31:41;;;;;;;14.60;7.57;;;;;;;4.94;100.00;100321.00;5134832;27;20082;-76
2021/12/19 09:34:09;;;;;;;15.50;8.70;;;;;;;5.00;100.00;100310.19;5133802;27;20095;-73
2021/12/19 09:36:38;;;;;;;13.45;7.63;;;;;;;5.06;100.00;100315.28;5134822;27;20047;-73
2021/12/19 09:39:06;;;;;;;12.15;5.97;;;;;;;5.01;100.00;100309.28;5134162;27;20054;-75
2021/12/19 09:41:42;;;;;;;11.50;6.50;;;;;;;5.07;100.00;100295.84;5134808;27;20031;-73
2021/12/19 09:44:15;;;;;;;13.98;7.97;;;;;;;5.17;100.00;100294.59;5134754;27;20042;-72
2021/12/19 09:46:46;;;;;;;14.77;6.50;;;;;;;5.18;100.00;100285.72;5134231;27;20066;-76
2021/12/19 09:49:18;;;;;;;14.40;7.97;;;;;;;5.23;100.00;100288.22;5153291;27;20042;-72
2021/12/19 09:51:48;;;;;;;16.13;7.90;;;;;;;5.30;100.00;100268.53;5154914;27;20054;-76
2021/12/19 09:54:16;;;;;;;11.00;4.93;;;;;;;5.26;100.00;100263.44;5155440;27;20425;-71
2021/12/19 09:56:45;;;;;;;14.93;7.10;;;;;;;5.33;100.00;100257.00;5155117;27;20122;-72
2021/12/19 09:59:16;;;;;;;14.57;7.65;;;;;;;5.33;100.00;100244.63;5155063;27;20039;-71
2021/12/19 10:01:46;;;;;;;11.27;5.88;;;;;;;5.30;100.00;100272.97;5155018;27;20045;-70
2021/12/19 10:04:29;;;;;;;13.52;4.75;;;;;;;5.29;100.00;100244.78;5155523;27;20087;-69
2021/12/19 10:07:05;;;;;;;;;;;;;;;5.32;100.00;100221.75;5155470;27;20464;-67
2021/12/19 10:09:36;;;;;;;14.25;7.47;;;;;;;5.28;100.00;100232.50;5154803;27;20359;-74
2021/12/19 10:12:25;;;;;;;9.73;5.72;;;;;;;5.39;100.00;100230.28;5155074;27;20050;-67
2021/12/19 10:14:55;;;;;;;16.17;7.97;;;;;;;5.40;100.00;100232.00;5154797;27;20483;-68
2021/12/19 10:17:23;;;;;;;9.13;5.05;;;;;;;5.52;100.00;100249.19;5155272;27;20407;-68
2021/12/19 10:19:53;;;;;;;13.30;6.60;;;;;;;5.56;100.00;100225.19;5154538;27;20070;-68
2021/12/19 10:22:27;;;;;;;15.60;7.80;;;;;;;5.57;100.00;100240.16;5154651;27;20054;-71
2021/12/19 10:24:57;;;;;;;12.90;7.28;;;;;;;5.53;100.00;100225.31;5153837;27;20066;-72
2021/12/19 10:27:35;;;;;;;13.23;7.53;;;;;;;5.61;100.00;100209.16;5155004;27;20051;-74
2021/12/19 10:30:10;;;;;;;12.23;6.63;;;;;;;5.84;100.00;100218.78;5155056;27;20057;-70
2021/12/19 10:32:51;;;;;;;14.90;7.72;;;;;;;5.89;100.00;100232.72;5154591;27;20368;-73
2021/12/19 10:35:22;;;;;;;7.53;4.07;;;;;;;5.78;100.00;100221.66;5154899;27;20053;-69
2021/12/19 10:37:50;;;;;;;10.35;5.80;;;;;;;5.82;100.00;100249.75;5154487;27;20043;-71
2021/12/19 10:40:19;;;;;;;12.40;6.80;;;;;;;5.86;100.00;100217.78;5154688;27;20047;-70
2021/12/19 10:42:56;;;;;;;13.13;6.72;;;;;;;5.80;100.00;100211.91;5154415;27;20050;-73
2021/12/19 10:45:36;;;;;;;11.13;5.97;;;;;;;5.71;100.00;100224.59;5154409;27;20038;-70
2021/12/19 10:48:17;;;;;;;14.38;7.35;;;;;;;5.62;100.00;100210.88;5154331;27;20380;-72
2021/12/19 10:50:52;;;;;;;12.05;7.25;;;;;;;5.58;100.00;100207.47;5153924;27;20046;-71
2021/12/19 10:53:25;;;;;;;11.27;6.32;;;;;;;5.61;100.00;100231.19;5154769;27;20118;-72
2021/12/19 10:55:53;;;;;;;11.38;6.18;;;;;;;5.59;100.00;100209.19;5154202;27;20034;-76
2021/12/19 10:58:33;;;;;;;13.30;6.93;;;;;;;5.61;100.00;100207.38;5154740;27;20049;-72
2021/12/19 11:01:10;;;;;;;12.88;6.32;;;;;;;5.61;100.00;100199.44;5154124;27;20039;-76
2021/12/19 11:03:45;;;;;;;11.07;5.97;;;;;;;5.62;100.00;100182.63;5154560;27;20050;-73
2021/12/19 11:06:20;;;;;;;11.75;6.47;;;;;;;5.60;100.00;100192.41;5155463;27;20043;-70
2021/12/19 11:08:50;;;;;;;13.23;6.50;;;;;;;5.61;100.00;100162.38;5153912;27;20034;-75
2021/12/19 11:11:41;;;;;;;12.75;6.57;;;;;;;5.56;100.00;100203.16;5154554;27;20043;-74
2021/12/19 11:14:11;;;;;;;11.88;5.78;;;;;;;5.61;100.00;100191.47;5154329;27;20391;-71
2021/12/19 11:16:44;;;;;;;12.27;6.63;;;;;;;5.70;100.00;100230.81;5148420;27;20681;-77
2021/12/19 11:19:13;;;;;;;11.63;6.32;;;;;;;5.57;100.00;100211.03;5130277;28;20039;-79
2021/12/19 11:21:42;;;;;;;10.48;5.55;;;;;;;5.62;100.00;100201.13;5133819;27;20461;-81
2021/12/19 11:24:13;;;;;;;13.52;7.93;;;;;;;5.74;100.00;100200.63;5132564;27;20063;-81
2021/12/19 11:26:44;;;;;;;15.10;7.78;;;;;;;5.93;100.00;100205.19;5132950;28;20043;-79
2021/12/19 11:29:15;;;;;;;13.73;6.60;;;;;;;5.74;100.00;100208.56;5131706;28;20047;-73
2021/12/19 11:31:50;;;;;;;14.18;6.18;;;;;;;5.66;100.00;100196.56;5131029;28;20092;-69
2021/12/19 11:34:38;;;;;;;12.68;6.90;;;;;;;5.56;100.00;100224.34;5132649;27;20043;-71
2021/12/19 11:37:13;;;;;;;11.38;6.53;;;;;;;5.51;100.00;100205.16;5133906;27;20047;-73
2021/12/19 11:39:44;;;;;;;10.95;6.70;;;;;;;5.42;100.00;100193.16;5147178;27;20057;-72
2021/12/19 11:42:15;;;;;;;13.23;6.28;;;;;;;5.44;100.00;100202.75;5142914;27;20050;-69
2021/12/19 11:45:03;;;;;;;12.23;6.68;;;;;;;5.43;100.00;100189.56;5153482;27;20042;-69
2021/12/19 11:47:43;;;;;;;13.77;6.95;;;;;;;5.39;100.00;100198.53;5143683;27;20091;-71
2021/12/19 11:50:20;;;;;;;12.98;6.82;;;;;;;5.34;100.00;100198.75;5142250;27;20118;-69
2021/12/19 11:52:52;;;;;;;13.00;6.85;;;;;;;5.37;100.00;100210.97;5152611;27;20059;-70
2021/12/19 11:55:30;;;;;;;10.32;6.32;;;;;;;5.36;100.00;100183.66;5134845;27;20048;-74
2021/12/19 11:58:24;;;;;;;11.10;6.30;;;;;;;5.34;100.00;100189.94;5147596;27;20059;-71
2021/12/19 12:00:56;;;;;;;11.27;5.88;;;;;;;5.22;100.00;100193.06;5138872;27;20051;-70
2021/12/19 12:03:32;;;;;;;10.75;5.53;;;;;;;5.22;100.00;100187.78;5148562;27;20122;-69
2021/12/19 12:06:26;;;;;;;10.60;6.47;;;;;;;5.18;100.00;100176.44;5146734;27;20038;-72
2021/12/19 12:09:11;;;;;;;11.25;6.18;;;;;;;5.18;100.00;100179.09;5134242;27;20144;-71
2021/12/19 12:11:41;;;;;;;11.93;6.60;;;;;;;5.17;100.00;100172.94;5146799;27;20046;-71
2021/12/19 12:14:31;;;;;;;11.18;5.97;;;;;;;5.16;100.00;100204.75;5148086;27;20057;-70
2021/12/19 12:17:05;;;;;;;12.68;6.35;;;;;;;5.11;100.00;100188.19;5138445;27;20078;-73
2021/12/19 12:19:43;;;;;;;10.02;6.07;;;;;;;5.10;100.00;100192.59;5147947;27;20110;-72
2021/12/19 12:22:39;;;;;;;12.43;7.00;;;;;;;5.12;100.00;100160.84;5136315;27;20051;-71
2021/12/19 12:25:15;;;;;;;13.77;6.60;;;;;;;5.09;100.00;100163.59;5125228;27;20113;-72
2021/12/19 12:27:52;;;;;;;14.52;6.70;;;;;;;5.09;100.00;100155.66;5147777;27;20043;-72
2021/12/19 12:30:24;;;;;;;11.70;6.68;;;;;;;5.14;100.00;100148.41;5140004;27;20047;-73
2021/12/19 12:32:54;;;;;;;12.32;6.85;;;;;;;5.13;100.00;100175.78;5152733;27;20118;-74
2021/12/19 12:35:25;;;;;;;13.98;7.40;;;;;;;5.12;100.00;100156.41;5141671;27;20046;-72